sensor_id;sensor_type;location;lat;lon;timestamp;P1;durP1;ratioP1;P2;durP2;ratioP2
30571;SDS011;17348;50.948;10.696;2022-07-22T00:00:41;12.40;;;6.13;;
30571;SDS011;17348;50.948;10.696;2022-07-22T00:03:45;9.93;;;6.05;;
30571;SDS011;17348;50.948;10.696;2022-07-22T00:06:49;13.05;;;6.00;;
30571;SDS011;17348;50.948;10.696;2022-07-22T00:09:51;7.78;;;5.43;;
30571;SDS011;17348;50.948;10.696;2022-07-22T00:12:53;11.18;;;5.78;;
30571;SDS011;17348;50.948;10.696;2022-07-22T00:15:56;9.95;;;6.07;;
30571;SDS011;17348;50.948;10.696;2022-07-22T00:18:58;10.60;;;6.03;;
30571;SDS011;17348;50.948;10.696;2022-07-22T00:22:02;9.05;;;6.00;;
30571;SDS011;17348;50.948;10.696;2022-07-22T00:25:04;9.77;;;5.82;;
30571;SDS011;17348;50.948;10.696;2022-07-22T00:28:08;11.85;;;5.57;;
30571;SDS011;17348;50.948;10.696;2022-07-22T00:31:10;8.80;;;5.63;;
30571;SDS011;17348;50.948;10.696;2022-07-22T00:34:12;8.27;;;4.78;;
30571;SDS011;17348;50.948;10.696;2022-07-22T00:37:16;13.20;;;6.25;;
30571;SDS011;17348;50.948;10.696;2022-07-22T00:40:18;7.43;;;4.78;;
30571;SDS011;17348;50.948;10.696;2022-07-22T00:43:20;9.45;;;5.35;;
30571;SDS011;17348;50.948;10.696;2022-07-22T00:46:23;13.13;;;5.30;;
30571;SDS011;17348;50.948;10.696;2022-07-22T00:49:26;7.15;;;4.45;;
30571;SDS011;17348;50.948;10.696;2022-07-22T00:52:33;8.70;;;4.60;;
30571;SDS011;17348;50.948;10.696;2022-07-22T00:55:36;5.75;;;3.80;;
30571;SDS011;17348;50.948;10.696;2022-07-22T00:58:39;8.57;;;3.75;;
30571;SDS011;17348;50.948;10.696;2022-07-22T01:01:42;10.20;;;3.88;;
30571;SDS011;17348;50.948;10.696;2022-07-22T01:04:44;6.68;;;4.03;;
30571;SDS011;17348;50.948;10.696;2022-07-22T01:07:48;6.07;;;3.25;;
30571;SDS011;17348;50.948;10.696;2022-07-22T01:10:50;6.53;;;3.38;;
30571;SDS011;17348;50.948;10.696;2022-07-22T01:13:56;4.43;;;3.17;;
30571;SDS011;17348;50.948;10.696;2022-07-22T01:16:58;6.80;;;3.63;;
30571;SDS011;17348;50.948;10.696;2022-07-22T01:20:02;4.43;;;2.55;;
30571;SDS011;17348;50.948;10.696;2022-07-22T01:23:05;4.72;;;3.00;;
30571;SDS011;17348;50.948;10.696;2022-07-22T01:26:07;4.68;;;3.05;;
30571;SDS011;17348;50.948;10.696;2022-07-22T01:29:09;8.88;;;2.92;;
30571;SDS011;17348;50.948;10.696;2022-07-22T01:32:12;3.72;;;2.67;;
30571;SDS011;17348;50.948;10.696;2022-07-22T01:35:15;4.20;;;2.70;;
30571;SDS011;17348;50.948;10.696;2022-07-22T01:38:18;4.97;;;2.80;;
30571;SDS011;17348;50.948;10.696;2022-07-22T01:41:20;3.35;;;2.45;;
30571;SDS011;17348;50.948;10.696;2022-07-22T01:44:22;3.35;;;2.40;;
30571;SDS011;17348;50.948;10.696;2022-07-22T01:47:25;3.22;;;2.63;;
30571;SDS011;17348;50.948;10.696;2022-07-22T01:50:28;3.42;;;2.60;;
30571;SDS011;17348;50.948;10.696;2022-07-22T01:53:31;4.57;;;2.50;;
30571;SDS011;17348;50.948;10.696;2022-07-22T01:56:34;3.63;;;2.63;;
30571;SDS011;17348;50.948;10.696;2022-07-22T01:59:36;9.18;;;2.58;;
30571;SDS011;17348;50.948;10.696;2022-07-22T02:02:38;6.32;;;1.77;;
30571;SDS011;17348;50.948;10.696;2022-07-22T02:05:42;3.92;;;2.45;;
30571;SDS011;17348;50.948;10.696;2022-07-22T02:08:45;4.85;;;2.67;;
30571;SDS011;17348;50.948;10.696;2022-07-22T02:11:48;3.95;;;2.40;;
30571;SDS011;17348;50.948;10.696;2022-07-22T02:14:50;5.25;;;2.92;;
30571;SDS011;17348;50.948;10.696;2022-07-22T02:17:52;4.55;;;3.08;;
30571;SDS011;17348;50.948;10.696;2022-07-22T02:20:56;4.78;;;2.70;;
30571;SDS011;17348;50.948;10.696;2022-07-22T02:23:58;5.07;;;2.35;;
30571;SDS011;17348;50.948;10.696;2022-07-22T02:27:01;4.07;;;2.40;;
30571;SDS011;17348;50.948;10.696;2022-07-22T02:30:04;3.33;;;2.53;;
30571;SDS011;17348;50.948;10.696;2022-07-22T02:33:07;3.42;;;2.35;;
30571;SDS011;17348;50.948;10.696;2022-07-22T02:36:11;4.00;;;2.78;;
30571;SDS011;17348;50.948;10.696;2022-07-22T02:39:13;3.60;;;2.42;;
30571;SDS011;17348;50.948;10.696;2022-07-22T02:42:16;4.65;;;3.40;;
30571;SDS011;17348;50.948;10.696;2022-07-22T02:45:18;4.00;;;2.75;;
30571;SDS011;17348;50.948;10.696;2022-07-22T02:48:20;4.45;;;2.80;;
30571;SDS011;17348;50.948;10.696;2022-07-22T02:51:24;5.40;;;3.40;;
30571;SDS011;17348;50.948;10.696;2022-07-22T02:54:26;7.35;;;3.33;;
30571;SDS011;17348;50.948;10.696;2022-07-22T02:57:29;3.95;;;3.05;;
30571;SDS011;17348;50.948;10.696;2022-07-22T03:00:31;5.57;;;3.10;;
30571;SDS011;17348;50.948;10.696;2022-07-22T03:03:34;4.68;;;2.80;;
30571;SDS011;17348;50.948;10.696;2022-07-22T03:06:37;3.20;;;2.78;;
30571;SDS011;17348;50.948;10.696;2022-07-22T03:09:40;5.80;;;3.22;;
30571;SDS011;17348;50.948;10.696;2022-07-22T03:12:42;4.45;;;3.15;;
30571;SDS011;17348;50.948;10.696;2022-07-22T03:15:44;6.90;;;3.58;;
30571;SDS011;17348;50.948;10.696;2022-07-22T03:18:47;4.85;;;3.15;;
30571;SDS011;17348;50.948;10.696;2022-07-22T03:21:50;5.80;;;3.40;;
30571;SDS011;17348;50.948;10.696;2022-07-22T03:24:52;6.60;;;3.28;;
30571;SDS011;17348;50.948;10.696;2022-07-22T03:27:55;10.10;;;3.38;;
30571;SDS011;17348;50.948;10.696;2022-07-22T03:30:57;5.18;;;3.83;;
30571;SDS011;17348;50.948;10.696;2022-07-22T03:33:59;8.35;;;3.33;;
30571;SDS011;17348;50.948;10.696;2022-07-22T03:37:03;7.57;;;3.30;;
30571;SDS011;17348;50.948;10.696;2022-07-22T03:40:06;6.65;;;3.13;;
30571;SDS011;17348;50.948;10.696;2022-07-22T03:43:09;8.60;;;3.10;;
30571;SDS011;17348;50.948;10.696;2022-07-22T03:46:11;5.00;;;3.25;;
30571;SDS011;17348;50.948;10.696;2022-07-22T03:49:13;4.88;;;2.78;;
30571;SDS011;17348;50.948;10.696;2022-07-22T03:52:17;3.70;;;2.47;;
30571;SDS011;17348;50.948;10.696;2022-07-22T03:55:20;3.55;;;2.70;;
30571;SDS011;17348;50.948;10.696;2022-07-22T03:58:22;4.78;;;3.20;;
30571;SDS011;17348;50.948;10.696;2022-07-22T04:01:24;6.22;;;2.65;;
30571;SDS011;17348;50.948;10.696;2022-07-22T04:04:27;6.78;;;2.85;;
30571;SDS011;17348;50.948;10.696;2022-07-22T04:07:30;4.82;;;2.53;;
30571;SDS011;17348;50.948;10.696;2022-07-22T04:10:33;5.90;;;2.53;;
30571;SDS011;17348;50.948;10.696;2022-07-22T04:13:35;4.03;;;2.55;;
30571;SDS011;17348;50.948;10.696;2022-07-22T04:16:37;4.50;;;2.47;;
30571;SDS011;17348;50.948;10.696;2022-07-22T04:19:40;3.38;;;2.25;;
30571;SDS011;17348;50.948;10.696;2022-07-22T04:22:43;4.88;;;2.60;;
30571;SDS011;17348;50.948;10.696;2022-07-22T04:25:46;3.13;;;2.17;;
30571;SDS011;17348;50.948;10.696;2022-07-22T04:28:48;3.22;;;2.10;;
30571;SDS011;17348;50.948;10.696;2022-07-22T04:31:50;3.13;;;2.15;;
30571;SDS011;17348;50.948;10.696;2022-07-22T04:34:52;3.47;;;2.45;;
30571;SDS011;17348;50.948;10.696;2022-07-22T04:37:56;2.75;;;2.25;;
30571;SDS011;17348;50.948;10.696;2022-07-22T04:40:58;3.72;;;2.47;;
30571;SDS011;17348;50.948;10.696;2022-07-22T04:44:01;3.35;;;2.45;;
30571;SDS011;17348;50.948;10.696;2022-07-22T04:47:03;2.80;;;1.83;;
30571;SDS011;17348;50.948;10.696;2022-07-22T04:50:06;3.38;;;1.95;;
30571;SDS011;17348;50.948;10.696;2022-07-22T04:53:10;3.20;;;2.40;;
30571;SDS011;17348;50.948;10.696;2022-07-22T04:56:13;2.35;;;1.98;;
30571;SDS011;17348;50.948;10.696;2022-07-22T04:59:15;5.47;;;1.92;;
30571;SDS011;17348;50.948;10.696;2022-07-22T05:02:17;8.00;;;2.30;;
30571;SDS011;17348;50.948;10.696;2022-07-22T05:05:20;4.13;;;1.90;;
30571;SDS011;17348;50.948;10.696;2022-07-22T05:08:24;2.95;;;2.00;;
30571;SDS011;17348;50.948;10.696;2022-07-22T05:11:26;2.70;;;1.83;;
30571;SDS011;17348;50.948;10.696;2022-07-22T05:14:29;2.15;;;1.52;;
30571;SDS011;17348;50.948;10.696;2022-07-22T05:17:31;7.40;;;2.30;;
30571;SDS011;17348;50.948;10.696;2022-07-22T05:20:33;2.53;;;1.85;;
30571;SDS011;17348;50.948;10.696;2022-07-22T05:23:38;2.63;;;2.05;;
30571;SDS011;17348;50.948;10.696;2022-07-22T05:26:40;2.38;;;1.90;;
30571;SDS011;17348;50.948;10.696;2022-07-22T05:29:43;3.05;;;1.80;;
30571;SDS011;17348;50.948;10.696;2022-07-22T05:32:45;2.42;;;1.98;;
30571;SDS011;17348;50.948;10.696;2022-07-22T05:35:47;2.22;;;1.80;;
30571;SDS011;17348;50.948;10.696;2022-07-22T05:38:51;2.70;;;1.70;;
30571;SDS011;17348;50.948;10.696;2022-07-22T05:41:53;5.57;;;2.05;;
30571;SDS011;17348;50.948;10.696;2022-07-22T05:44:55;2.55;;;1.65;;
30571;SDS011;17348;50.948;10.696;2022-07-22T05:47:58;1.52;;;1.15;;
30571;SDS011;17348;50.948;10.696;2022-07-22T05:51:01;1.95;;;1.73;;
30571;SDS011;17348;50.948;10.696;2022-07-22T05:54:05;2.53;;;1.63;;
30571;SDS011;17348;50.948;10.696;2022-07-22T05:57:08;2.45;;;1.92;;
30571;SDS011;17348;50.948;10.696;2022-07-22T06:00:10;5.90;;;1.88;;
30571;SDS011;17348;50.948;10.696;2022-07-22T06:03:16;1.90;;;1.10;;
30571;SDS011;17348;50.948;10.696;2022-07-22T06:06:19;2.88;;;1.35;;
30571;SDS011;17348;50.948;10.696;2022-07-22T06:09:23;3.28;;;1.15;;
30571;SDS011;17348;50.948;10.696;2022-07-22T06:12:25;1.38;;;1.10;;
30571;SDS011;17348;50.948;10.696;2022-07-22T06:15:28;3.38;;;1.58;;
30571;SDS011;17348;50.948;10.696;2022-07-22T06:18:30;2.28;;;1.08;;
30571;SDS011;17348;50.948;10.696;2022-07-22T06:21:32;6.90;;;1.35;;
30571;SDS011;17348;50.948;10.696;2022-07-22T06:24:36;1.98;;;1.27;;
30571;SDS011;17348;50.948;10.696;2022-07-22T06:27:38;3.35;;;1.42;;
30571;SDS011;17348;50.948;10.696;2022-07-22T06:30:40;1.55;;;1.30;;
30571;SDS011;17348;50.948;10.696;2022-07-22T06:33:45;2.13;;;1.23;;
30571;SDS011;17348;50.948;10.696;2022-07-22T06:36:47;1.67;;;1.13;;
30571;SDS011;17348;50.948;10.696;2022-07-22T06:39:51;1.88;;;1.42;;
30571;SDS011;17348;50.948;10.696;2022-07-22T06:42:53;1.95;;;1.60;;
30571;SDS011;17348;50.948;10.696;2022-07-22T06:45:55;2.50;;;1.50;;
30571;SDS011;17348;50.948;10.696;2022-07-22T06:48:57;1.85;;;1.33;;
30571;SDS011;17348;50.948;10.696;2022-07-22T06:52:00;1.67;;;1.30;;
30571;SDS011;17348;50.948;10.696;2022-07-22T06:55:04;3.65;;;1.35;;
30571;SDS011;17348;50.948;10.696;2022-07-22T06:58:07;2.10;;;1.40;;
30571;SDS011;17348;50.948;10.696;2022-07-22T07:01:10;2.30;;;1.30;;
30571;SDS011;17348;50.948;10.696;2022-07-22T07:04:12;3.22;;;1.20;;
30571;SDS011;17348;50.948;10.696;2022-07-22T07:07:15;2.53;;;1.60;;
30571;SDS011;17348;50.948;10.696;2022-07-22T07:10:18;1.73;;;1.35;;
30571;SDS011;17348;50.948;10.696;2022-07-22T07:13:20;6.55;;;1.30;;
30571;SDS011;17348;50.948;10.696;2022-07-22T07:16:24;1.90;;;1.13;;
30571;SDS011;17348;50.948;10.696;2022-07-22T07:19:26;2.22;;;1.50;;
30571;SDS011;17348;50.948;10.696;2022-07-22T07:22:29;6.70;;;1.33;;
30571;SDS011;17348;50.948;10.696;2022-07-22T07:25:32;1.88;;;0.90;;
30571;SDS011;17348;50.948;10.696;2022-07-22T07:28:35;4.13;;;1.75;;
30571;SDS011;17348;50.948;10.696;2022-07-22T07:31:37;3.50;;;1.45;;
30571;SDS011;17348;50.948;10.696;2022-07-22T07:34:39;2.15;;;1.50;;
30571;SDS011;17348;50.948;10.696;2022-07-22T07:37:42;4.78;;;1.50;;
30571;SDS011;17348;50.948;10.696;2022-07-22T07:40:48;2.20;;;1.73;;
30571;SDS011;17348;50.948;10.696;2022-07-22T07:43:50;1.55;;;1.45;;
30571;SDS011;17348;50.948;10.696;2022-07-22T07:46:53;1.95;;;1.40;;
30571;SDS011;17348;50.948;10.696;2022-07-22T07:49:55;6.88;;;1.95;;
30571;SDS011;17348;50.948;10.696;2022-07-22T07:53:00;3.17;;;1.92;;
30571;SDS011;17348;50.948;10.696;2022-07-22T07:56:03;3.60;;;1.63;;
30571;SDS011;17348;50.948;10.696;2022-07-22T07:59:06;3.58;;;1.95;;
30571;SDS011;17348;50.948;10.696;2022-07-22T08:02:08;3.13;;;2.22;;
30571;SDS011;17348;50.948;10.696;2022-07-22T08:05:11;4.18;;;1.60;;
30571;SDS011;17348;50.948;10.696;2022-07-22T08:08:13;3.20;;;1.95;;
30571;SDS011;17348;50.948;10.696;2022-07-22T08:11:17;3.38;;;2.10;;
30571;SDS011;17348;50.948;10.696;2022-07-22T08:14:20;5.38;;;2.05;;
30571;SDS011;17348;50.948;10.696;2022-07-22T08:17:23;3.15;;;2.10;;
30571;SDS011;17348;50.948;10.696;2022-07-22T08:20:26;2.88;;;1.67;;
30571;SDS011;17348;50.948;10.696;2022-07-22T08:23:30;1.90;;;1.65;;
30571;SDS011;17348;50.948;10.696;2022-07-22T08:26:33;5.43;;;1.77;;
30571;SDS011;17348;50.948;10.696;2022-07-22T08:29:36;3.35;;;1.80;;
30571;SDS011;17348;50.948;10.696;2022-07-22T08:32:38;3.28;;;1.58;;
30571;SDS011;17348;50.948;10.696;2022-07-22T08:35:41;4.38;;;1.40;;
30571;SDS011;17348;50.948;10.696;2022-07-22T08:38:43;1.40;;;1.30;;
30571;SDS011;17348;50.948;10.696;2022-07-22T08:41:47;1.77;;;1.13;;
30571;SDS011;17348;50.948;10.696;2022-07-22T08:44:49;1.75;;;1.40;;
30571;SDS011;17348;50.948;10.696;2022-07-22T08:47:51;2.97;;;1.30;;
30571;SDS011;17348;50.948;10.696;2022-07-22T08:50:54;1.60;;;1.27;;
30571;SDS011;17348;50.948;10.696;2022-07-22T08:53:56;1.05;;;0.90;;
30571;SDS011;17348;50.948;10.696;2022-07-22T08:57:00;1.92;;;1.42;;
30571;SDS011;17348;50.948;10.696;2022-07-22T09:00:03;1.42;;;1.00;;
30571;SDS011;17348;50.948;10.696;2022-07-22T09:03:21;2.95;;;1.30;;
30571;SDS011;17348;50.948;10.696;2022-07-22T09:06:28;1.35;;;1.15;;
30571;SDS011;17348;50.948;10.696;2022-07-22T09:09:33;4.28;;;2.10;;
30571;SDS011;17348;50.948;10.696;2022-07-22T09:12:39;2.45;;;1.75;;
30571;SDS011;17348;50.948;10.696;2022-07-22T09:15:54;2.05;;;1.50;;
30571;SDS011;17348;50.948;10.696;2022-07-22T09:18:56;3.05;;;1.40;;
30571;SDS011;17348;50.948;10.696;2022-07-22T09:21:59;2.08;;;1.48;;
30571;SDS011;17348;50.948;10.696;2022-07-22T09:25:16;3.15;;;1.48;;
30571;SDS011;17348;50.948;10.696;2022-07-22T09:28:24;3.60;;;1.15;;
30571;SDS011;17348;50.948;10.696;2022-07-22T09:31:28;1.30;;;1.20;;
30571;SDS011;17348;50.948;10.696;2022-07-22T09:34:32;1.48;;;1.00;;
30571;SDS011;17348;50.948;10.696;2022-07-22T09:37:35;2.08;;;1.20;;
30571;SDS011;17348;50.948;10.696;2022-07-22T09:40:37;2.40;;;1.48;;
30571;SDS011;17348;50.948;10.696;2022-07-22T09:43:42;2.45;;;1.25;;
30571;SDS011;17348;50.948;10.696;2022-07-22T09:46:44;2.83;;;1.42;;
30571;SDS011;17348;50.948;10.696;2022-07-22T09:49:47;2.47;;;1.55;;
30571;SDS011;17348;50.948;10.696;2022-07-22T09:52:50;2.05;;;1.40;;
30571;SDS011;17348;50.948;10.696;2022-07-22T09:55:53;2.42;;;1.67;;
30571;SDS011;17348;50.948;10.696;2022-07-22T09:58:57;2.40;;;1.63;;
30571;SDS011;17348;50.948;10.696;2022-07-22T10:01:59;2.50;;;1.88;;
30571;SDS011;17348;50.948;10.696;2022-07-22T10:05:05;2.38;;;1.52;;
30571;SDS011;17348;50.948;10.696;2022-07-22T10:08:08;2.70;;;1.85;;
30571;SDS011;17348;50.948;10.696;2022-07-22T10:11:11;2.50;;;1.60;;
30571;SDS011;17348;50.948;10.696;2022-07-22T10:14:16;2.80;;;1.55;;
30571;SDS011;17348;50.948;10.696;2022-07-22T10:17:19;3.55;;;1.70;;
30571;SDS011;17348;50.948;10.696;2022-07-22T10:20:23;4.57;;;1.65;;
30571;SDS011;17348;50.948;10.696;2022-07-22T10:23:26;2.58;;;1.85;;
30571;SDS011;17348;50.948;10.696;2022-07-22T10:29:50;2.38;;;1.58;;
30571;SDS011;17348;50.948;10.696;2022-07-22T10:33:04;3.35;;;1.77;;
30571;SDS011;17348;50.948;10.696;2022-07-22T10:36:08;2.78;;;2.30;;
30571;SDS011;17348;50.948;10.696;2022-07-22T10:39:11;5.35;;;1.52;;
30571;SDS011;17348;50.948;10.696;2022-07-22T10:42:14;1.83;;;1.38;;
30571;SDS011;17348;50.948;10.696;2022-07-22T10:45:18;5.53;;;2.00;;
30571;SDS011;17348;50.948;10.696;2022-07-22T10:48:22;7.30;;;1.95;;
30571;SDS011;17348;50.948;10.696;2022-07-22T10:51:26;7.43;;;2.13;;
30571;SDS011;17348;50.948;10.696;2022-07-22T10:54:28;7.03;;;2.10;;
30571;SDS011;17348;50.948;10.696;2022-07-22T10:57:31;5.95;;;2.15;;
30571;SDS011;17348;50.948;10.696;2022-07-22T11:00:35;2.53;;;1.77;;
30571;SDS011;17348;50.948;10.696;2022-07-22T11:03:39;2.38;;;1.88;;
30571;SDS011;17348;50.948;10.696;2022-07-22T11:06:43;4.20;;;1.83;;
30571;SDS011;17348;50.948;10.696;2022-07-22T11:09:46;2.67;;;1.85;;
30571;SDS011;17348;50.948;10.696;2022-07-22T11:12:49;3.47;;;1.92;;
30571;SDS011;17348;50.948;10.696;2022-07-22T11:15:53;4.70;;;1.88;;
30571;SDS011;17348;50.948;10.696;2022-07-22T11:18:55;7.57;;;1.90;;
30571;SDS011;17348;50.948;10.696;2022-07-22T11:22:01;4.43;;;2.03;;
30571;SDS011;17348;50.948;10.696;2022-07-22T11:25:06;3.85;;;2.08;;
30571;SDS011;17348;50.948;10.696;2022-07-22T11:28:09;3.85;;;1.75;;
30571;SDS011;17348;50.948;10.696;2022-07-22T11:31:15;1.90;;;1.58;;
30571;SDS011;17348;50.948;10.696;2022-07-22T11:34:18;2.25;;;1.70;;
30571;SDS011;17348;50.948;10.696;2022-07-22T11:37:23;7.40;;;2.03;;
30571;SDS011;17348;50.948;10.696;2022-07-22T11:40:31;5.13;;;2.40;;
30571;SDS011;17348;50.948;10.696;2022-07-22T11:43:40;7.18;;;1.80;;
30571;SDS011;17348;50.948;10.696;2022-07-22T11:46:44;9.00;;;1.98;;
30571;SDS011;17348;50.948;10.696;2022-07-22T11:49:47;5.80;;;1.90;;
30571;SDS011;17348;50.948;10.696;2022-07-22T11:52:51;4.07;;;2.30;;
30571;SDS011;17348;50.948;10.696;2022-07-22T11:55:56;6.55;;;2.58;;
30571;SDS011;17348;50.948;10.696;2022-07-22T11:58:59;3.40;;;1.92;;
30571;SDS011;17348;50.948;10.696;2022-07-22T12:02:06;4.00;;;2.00;;
30571;SDS011;17348;50.948;10.696;2022-07-22T12:05:12;5.28;;;1.80;;
30571;SDS011;17348;50.948;10.696;2022-07-22T12:08:14;5.80;;;2.40;;
30571;SDS011;17348;50.948;10.696;2022-07-22T12:11:17;2.47;;;2.25;;
30571;SDS011;17348;50.948;10.696;2022-07-22T12:14:22;6.90;;;2.30;;
30571;SDS011;17348;50.948;10.696;2022-07-22T12:17:28;3.42;;;2.33;;
30571;SDS011;17348;50.948;10.696;2022-07-22T12:20:30;6.82;;;2.58;;
30571;SDS011;17348;50.948;10.696;2022-07-22T12:23:32;5.97;;;2.15;;
30571;SDS011;17348;50.948;10.696;2022-07-22T12:26:39;2.00;;;1.70;;
30571;SDS011;17348;50.948;10.696;2022-07-22T12:29:44;3.80;;;2.00;;
30571;SDS011;17348;50.948;10.696;2022-07-22T12:32:48;6.63;;;2.10;;
30571;SDS011;17348;50.948;10.696;2022-07-22T12:36:00;7.63;;;2.40;;
30571;SDS011;17348;50.948;10.696;2022-07-22T12:39:11;5.00;;;2.78;;
30571;SDS011;17348;50.948;10.696;2022-07-22T12:42:17;6.60;;;2.42;;
30571;SDS011;17348;50.948;10.696;2022-07-22T12:45:19;2.15;;;1.90;;
30571;SDS011;17348;50.948;10.696;2022-07-22T12:48:27;7.28;;;2.10;;
30571;SDS011;17348;50.948;10.696;2022-07-22T12:51:30;3.42;;;2.35;;
30571;SDS011;17348;50.948;10.696;2022-07-22T12:54:32;3.70;;;2.20;;
30571;SDS011;17348;50.948;10.696;2022-07-22T12:57:35;2.80;;;2.35;;
30571;SDS011;17348;50.948;10.696;2022-07-22T13:00:38;5.18;;;2.70;;
30571;SDS011;17348;50.948;10.696;2022-07-22T13:03:42;2.65;;;2.13;;
30571;SDS011;17348;50.948;10.696;2022-07-22T13:06:45;2.53;;;1.90;;
30571;SDS011;17348;50.948;10.696;2022-07-22T13:09:47;4.00;;;2.30;;
30571;SDS011;17348;50.948;10.696;2022-07-22T13:12:52;4.63;;;2.38;;
30571;SDS011;17348;50.948;10.696;2022-07-22T13:15:55;4.32;;;2.50;;
30571;SDS011;17348;50.948;10.696;2022-07-22T13:18:59;2.22;;;1.98;;
30571;SDS011;17348;50.948;10.696;2022-07-22T13:22:01;2.95;;;1.70;;
30571;SDS011;17348;50.948;10.696;2022-07-22T13:25:04;2.85;;;2.42;;
30571;SDS011;17348;50.948;10.696;2022-07-22T13:28:07;3.05;;;2.20;;
30571;SDS011;17348;50.948;10.696;2022-07-22T13:31:14;2.97;;;2.30;;
30571;SDS011;17348;50.948;10.696;2022-07-22T13:34:17;8.10;;;2.25;;
30571;SDS011;17348;50.948;10.696;2022-07-22T13:37:20;4.25;;;2.50;;
30571;SDS011;17348;50.948;10.696;2022-07-22T13:40:22;5.28;;;2.42;;
30571;SDS011;17348;50.948;10.696;2022-07-22T13:43:25;5.68;;;2.33;;
30571;SDS011;17348;50.948;10.696;2022-07-22T13:46:27;4.05;;;2.28;;
30571;SDS011;17348;50.948;10.696;2022-07-22T13:49:31;2.45;;;2.25;;
30571;SDS011;17348;50.948;10.696;2022-07-22T13:52:33;5.53;;;2.55;;
30571;SDS011;17348;50.948;10.696;2022-07-22T13:55:37;6.05;;;2.55;;
30571;SDS011;17348;50.948;10.696;2022-07-22T13:58:39;8.38;;;2.25;;
30571;SDS011;17348;50.948;10.696;2022-07-22T14:01:42;9.23;;;3.08;;
30571;SDS011;17348;50.948;10.696;2022-07-22T14:04:46;3.38;;;2.10;;
30571;SDS011;17348;50.948;10.696;2022-07-22T14:07:48;10.05;;;2.83;;
30571;SDS011;17348;50.948;10.696;2022-07-22T14:10:51;7.78;;;2.67;;
30571;SDS011;17348;50.948;10.696;2022-07-22T14:13:53;3.53;;;2.22;;
30571;SDS011;17348;50.948;10.696;2022-07-22T14:16:55;4.57;;;2.80;;
30571;SDS011;17348;50.948;10.696;2022-07-22T14:19:59;5.05;;;2.38;;
30571;SDS011;17348;50.948;10.696;2022-07-22T14:23:01;3.75;;;2.75;;
30571;SDS011;17348;50.948;10.696;2022-07-22T14:26:05;2.80;;;2.50;;
30571;SDS011;17348;50.948;10.696;2022-07-22T14:29:08;3.08;;;2.17;;
30571;SDS011;17348;50.948;10.696;2022-07-22T14:32:10;7.85;;;2.47;;
30571;SDS011;17348;50.948;10.696;2022-07-22T14:35:14;6.18;;;2.42;;
30571;SDS011;17348;50.948;10.696;2022-07-22T14:38:16;4.50;;;2.30;;
30571;SDS011;17348;50.948;10.696;2022-07-22T14:41:22;4.32;;;3.00;;
30571;SDS011;17348;50.948;10.696;2022-07-22T14:44:24;6.72;;;2.35;;
30571;SDS011;17348;50.948;10.696;2022-07-22T14:47:26;7.10;;;2.22;;
30571;SDS011;17348;50.948;10.696;2022-07-22T14:50:30;2.60;;;2.33;;
30571;SDS011;17348;50.948;10.696;2022-07-22T14:53:32;2.55;;;2.30;;
30571;SDS011;17348;50.948;10.696;2022-07-22T14:56:35;4.45;;;2.05;;
30571;SDS011;17348;50.948;10.696;2022-07-22T14:59:37;3.88;;;2.28;;
30571;SDS011;17348;50.948;10.696;2022-07-22T15:02:39;3.60;;;2.40;;
30571;SDS011;17348;50.948;10.696;2022-07-22T15:05:43;9.90;;;2.38;;
30571;SDS011;17348;50.948;10.696;2022-07-22T15:08:45;6.57;;;2.15;;
30571;SDS011;17348;50.948;10.696;2022-07-22T15:11:48;3.20;;;2.03;;
30571;SDS011;17348;50.948;10.696;2022-07-22T15:14:50;5.50;;;2.80;;
30571;SDS011;17348;50.948;10.696;2022-07-22T15:17:55;5.55;;;2.70;;
30571;SDS011;17348;50.948;10.696;2022-07-22T15:21:01;2.50;;;2.25;;
30571;SDS011;17348;50.948;10.696;2022-07-22T15:24:04;4.38;;;2.30;;
30571;SDS011;17348;50.948;10.696;2022-07-22T15:27:09;3.75;;;2.20;;
30571;SDS011;17348;50.948;10.696;2022-07-22T15:30:11;3.55;;;2.47;;
30571;SDS011;17348;50.948;10.696;2022-07-22T15:33:14;6.47;;;2.70;;
30571;SDS011;17348;50.948;10.696;2022-07-22T15:36:18;8.50;;;2.40;;
30571;SDS011;17348;50.948;10.696;2022-07-22T15:39:25;7.53;;;2.70;;
30571;SDS011;17348;50.948;10.696;2022-07-22T15:42:28;3.50;;;2.15;;
30571;SDS011;17348;50.948;10.696;2022-07-22T15:45:30;5.93;;;2.25;;
30571;SDS011;17348;50.948;10.696;2022-07-22T15:48:32;3.00;;;2.60;;
30571;SDS011;17348;50.948;10.696;2022-07-22T15:51:36;5.50;;;2.75;;
30571;SDS011;17348;50.948;10.696;2022-07-22T15:54:38;6.03;;;2.30;;
30571;SDS011;17348;50.948;10.696;2022-07-22T15:57:41;6.28;;;2.40;;
30571;SDS011;17348;50.948;10.696;2022-07-22T16:01:01;6.75;;;2.28;;
30571;SDS011;17348;50.948;10.696;2022-07-22T16:04:03;11.88;;;2.72;;
30571;SDS011;17348;50.948;10.696;2022-07-22T16:07:07;3.40;;;2.60;;
30571;SDS011;17348;50.948;10.696;2022-07-22T16:10:09;4.95;;;2.42;;
30571;SDS011;17348;50.948;10.696;2022-07-22T16:13:11;2.95;;;2.35;;
30571;SDS011;17348;50.948;10.696;2022-07-22T16:16:14;4.38;;;2.42;;
30571;SDS011;17348;50.948;10.696;2022-07-22T16:19:16;5.45;;;2.47;;
30571;SDS011;17348;50.948;10.696;2022-07-22T16:22:20;6.85;;;2.42;;
30571;SDS011;17348;50.948;10.696;2022-07-22T16:25:22;9.43;;;2.50;;
30571;SDS011;17348;50.948;10.696;2022-07-22T16:28:24;5.40;;;2.40;;
30571;SDS011;17348;50.948;10.696;2022-07-22T16:31:27;5.60;;;2.78;;
30571;SDS011;17348;50.948;10.696;2022-07-22T16:34:29;4.43;;;2.55;;
30571;SDS011;17348;50.948;10.696;2022-07-22T16:37:33;5.82;;;3.38;;
30571;SDS011;17348;50.948;10.696;2022-07-22T16:40:35;8.77;;;2.90;;
30571;SDS011;17348;50.948;10.696;2022-07-22T16:43:37;4.82;;;3.17;;
30571;SDS011;17348;50.948;10.696;2022-07-22T16:46:41;17.52;;;2.88;;
30571;SDS011;17348;50.948;10.696;2022-07-22T16:49:43;2.97;;;2.30;;
30571;SDS011;17348;50.948;10.696;2022-07-22T16:52:47;3.30;;;2.22;;
30571;SDS011;17348;50.948;10.696;2022-07-22T16:55:49;9.77;;;2.45;;
30571;SDS011;17348;50.948;10.696;2022-07-22T16:58:51;3.20;;;2.30;;
30571;SDS011;17348;50.948;10.696;2022-07-22T17:01:54;4.47;;;2.70;;
30571;SDS011;17348;50.948;10.696;2022-07-22T17:04:56;4.55;;;2.85;;
30571;SDS011;17348;50.948;10.696;2022-07-22T17:08:00;3.92;;;2.67;;
30571;SDS011;17348;50.948;10.696;2022-07-22T17:11:02;5.30;;;2.78;;
30571;SDS011;17348;50.948;10.696;2022-07-22T17:14:05;4.50;;;2.95;;
30571;SDS011;17348;50.948;10.696;2022-07-22T17:17:07;8.45;;;2.55;;
30571;SDS011;17348;50.948;10.696;2022-07-22T17:20:10;6.90;;;2.63;;
30571;SDS011;17348;50.948;10.696;2022-07-22T17:23:15;10.63;;;3.00;;
30571;SDS011;17348;50.948;10.696;2022-07-22T17:26:17;11.93;;;2.92;;
30571;SDS011;17348;50.948;10.696;2022-07-22T17:29:19;6.32;;;2.38;;
30571;SDS011;17348;50.948;10.696;2022-07-22T17:32:22;7.25;;;3.17;;
30571;SDS011;17348;50.948;10.696;2022-07-22T17:35:24;5.53;;;2.40;;
30571;SDS011;17348;50.948;10.696;2022-07-22T17:38:28;6.88;;;2.05;;
30571;SDS011;17348;50.948;10.696;2022-07-22T17:41:30;4.85;;;2.28;;
30571;SDS011;17348;50.948;10.696;2022-07-22T17:44:33;6.07;;;2.30;;
30571;SDS011;17348;50.948;10.696;2022-07-22T17:47:35;7.78;;;2.10;;
30571;SDS011;17348;50.948;10.696;2022-07-22T17:50:38;5.10;;;2.47;;
30571;SDS011;17348;50.948;10.696;2022-07-22T17:53:42;6.00;;;1.98;;
30571;SDS011;17348;50.948;10.696;2022-07-22T17:56:44;8.52;;;2.00;;
30571;SDS011;17348;50.948;10.696;2022-07-22T17:59:46;5.28;;;2.22;;
30571;SDS011;17348;50.948;10.696;2022-07-22T18:02:48;8.02;;;2.33;;
30571;SDS011;17348;50.948;10.696;2022-07-22T18:05:51;9.20;;;2.45;;
30571;SDS011;17348;50.948;10.696;2022-07-22T18:08:55;5.97;;;2.45;;